sensor_id;sensor_type;location;lat;lon;timestamp;pressure;altitude;pressure_sealevel;temperature;humidity
6835;BME280;3455;42.150;24.734;2023-01-01T00:01:15;66036.66;;;6.52;81.16
6835;BME280;3455;42.150;24.734;2023-01-01T00:03:42;66020.91;;;6.22;82.60
6835;BME280;3455;42.150;24.734;2023-01-01T00:06:11;66043.34;;;6.60;81.08
6835;BME280;3455;42.150;24.734;2023-01-01T00:08:41;66044.78;;;6.35;81.59
6835;BME280;3455;42.150;24.734;2023-01-01T00:11:09;66113.69;;;6.74;80.66
6835;BME280;3455;42.150;24.734;2023-01-01T00:13:37;66135.56;;;6.57;80.86
6835;BME280;3455;42.150;24.734;2023-01-01T00:16:05;66067.34;;;6.41;80.83
6835;BME280;3455;42.150;24.734;2023-01-01T00:18:32;66076.84;;;6.41;80.70
6835;BME280;3455;42.150;24.734;2023-01-01T00:21:02;66073.56;;;6.60;80.76
6835;BME280;3455;42.150;24.734;2023-01-01T00:23:29;66074.69;;;6.43;80.05
6835;BME280;3455;42.150;24.734;2023-01-01T00:25:58;66028.53;;;6.34;81.22
6835;BME280;3455;42.150;24.734;2023-01-01T00:28:24;66059.81;;;6.23;81.13
6835;BME280;3455;42.150;24.734;2023-01-01T00:30:51;66049.38;;;6.21;81.50
6835;BME280;3455;42.150;24.734;2023-01-01T00:33:18;66029.09;;;6.16;81.21
6835;BME280;3455;42.150;24.734;2023-01-01T00:35:45;66044.63;;;6.12;81.67
6835;BME280;3455;42.150;24.734;2023-01-01T00:38:11;65968.72;;;5.80;83.07
6835;BME280;3455;42.150;24.734;2023-01-01T00:40:38;66005.25;;;5.79;83.56
6835;BME280;3455;42.150;24.734;2023-01-01T00:43:06;66007.78;;;5.79;83.56
6835;BME280;3455;42.150;24.734;2023-01-01T00:45:33;66009.63;;;5.85;83.33
6835;BME280;3455;42.150;24.734;2023-01-01T00:48:00;66012.09;;;5.92;82.43
6835;BME280;3455;42.150;24.734;2023-01-01T00:50:26;66013.97;;;5.80;83.17
6835;BME280;3455;42.150;24.734;2023-01-01T00:52:53;66038.25;;;5.89;82.43
6835;BME280;3455;42.150;24.734;2023-01-01T00:55:20;66062.97;;;5.93;81.60
6835;BME280;3455;42.150;24.734;2023-01-01T00:57:46;65996.91;;;6.06;81.58
6835;BME280;3455;42.150;24.734;2023-01-01T01:00:15;65994.09;;;5.96;81.28
6835;BME280;3455;42.150;24.734;2023-01-01T01:02:42;66004.03;;;5.67;82.61
6835;BME280;3455;42.150;24.734;2023-01-01T01:05:09;66024.72;;;5.85;82.25
6835;BME280;3455;42.150;24.734;2023-01-01T01:07:37;66022.06;;;5.81;82.00
6835;BME280;3455;42.150;24.734;2023-01-01T01:10:05;65989.66;;;5.72;82.70
6835;BME280;3455;42.150;24.734;2023-01-01T01:12:32;66022.44;;;5.83;82.81
6835;BME280;3455;42.150;24.734;2023-01-01T01:14:59;65985.88;;;5.84;82.25
6835;BME280;3455;42.150;24.734;2023-01-01T01:17:27;66038.00;;;5.97;81.36
6835;BME280;3455;42.150;24.734;2023-01-01T01:19:54;66042.75;;;6.06;81.22
6835;BME280;3455;42.150;24.734;2023-01-01T01:22:21;65992.56;;;5.93;81.33
6835;BME280;3455;42.150;24.734;2023-01-01T01:24:48;66032.69;;;5.81;82.11
6835;BME280;3455;42.150;24.734;2023-01-01T01:27:15;65999.00;;;5.67;82.71
6835;BME280;3455;42.150;24.734;2023-01-01T01:29:42;66090.09;;;5.85;81.30
6835;BME280;3455;42.150;24.734;2023-01-01T01:32:09;66004.91;;;5.95;81.24
6835;BME280;3455;42.150;24.734;2023-01-01T01:34:37;66016.16;;;5.96;80.84
6835;BME280;3455;42.150;24.734;2023-01-01T01:37:04;66006.09;;;5.96;81.06
6835;BME280;3455;42.150;24.734;2023-01-01T01:39:31;65992.38;;;5.70;81.70
6835;BME280;3455;42.150;24.734;2023-01-01T01:41:58;66036.06;;;5.98;81.56
6835;BME280;3455;42.150;24.734;2023-01-01T01:44:51;66057.41;;;6.10;81.20
6835;BME280;3455;42.150;24.734;2023-01-01T01:47:22;66037.69;;;5.88;80.88
6835;BME280;3455;42.150;24.734;2023-01-01T01:49:55;66033.72;;;6.20;80.31
6835;BME280;3455;42.150;24.734;2023-01-01T01:52:24;66063.31;;;6.38;79.38
6835;BME280;3455;42.150;24.734;2023-01-01T01:54:52;66038.75;;;6.20;79.92
6835;BME280;3455;42.150;24.734;2023-01-01T01:57:19;65999.28;;;5.76;79.90
6835;BME280;3455;42.150;24.734;2023-01-01T01:59:49;66047.94;;;6.29;79.52
6835;BME280;3455;42.150;24.734;2023-01-01T02:02:22;66050.09;;;6.26;79.17
6835;BME280;3455;42.150;24.734;2023-01-01T02:04:54;66078.44;;;6.38;78.77
6835;BME280;3455;42.150;24.734;2023-01-01T02:07:21;66075.81;;;6.27;78.85
6835;BME280;3455;42.150;24.734;2023-01-01T02:09:49;66120.00;;;6.19;78.52
6835;BME280;3455;42.150;24.734;2023-01-01T02:12:16;66029.19;;;5.85;79.69
6835;BME280;3455;42.150;24.734;2023-01-01T02:14:43;66024.63;;;5.99;79.72
6835;BME280;3455;42.150;24.734;2023-01-01T02:17:14;66023.47;;;5.98;79.95
6835;BME280;3455;42.150;24.734;2023-01-01T02:20:06;66041.00;;;6.04;80.01
6835;BME280;3455;42.150;24.734;2023-01-01T02:22:53;66025.16;;;5.81;80.59
6835;BME280;3455;42.150;24.734;2023-01-01T02:25:27;66030.91;;;5.87;80.58
6835;BME280;3455;42.150;24.734;2023-01-01T02:28:07;66003.72;;;5.58;81.73
6835;BME280;3455;42.150;24.734;2023-01-01T02:30:38;65994.84;;;5.77;81.21
6835;BME280;3455;42.150;24.734;2023-01-01T02:33:11;65994.97;;;5.63;81.15
6835;BME280;3455;42.150;24.734;2023-01-01T02:35:44;65996.13;;;5.64;81.24
6835;BME280;3455;42.150;24.734;2023-01-01T02:38:15;65984.25;;;5.52;82.25
6835;BME280;3455;42.150;24.734;2023-01-01T02:40:46;65971.81;;;5.38;82.51
6835;BME280;3455;42.150;24.734;2023-01-01T02:43:14;65966.78;;;5.38;82.28
6835;BME280;3455;42.150;24.734;2023-01-01T02:45:42;65963.22;;;5.49;82.20
6835;BME280;3455;42.150;24.734;2023-01-01T02:48:37;65961.03;;;5.33;82.85
6835;BME280;3455;42.150;24.734;2023-01-01T02:51:13;65965.81;;;5.78;80.26
6835;BME280;3455;42.150;24.734;2023-01-01T02:53:45;65999.31;;;5.94;80.48
6835;BME280;3455;42.150;24.734;2023-01-01T02:56:23;66002.19;;;5.97;79.78
6835;BME280;3455;42.150;24.734;2023-01-01T02:59:00;66154.84;;;5.92;79.99
6835;BME280;3455;42.150;24.734;2023-01-01T03:01:55;65999.75;;;5.90;79.89
6835;BME280;3455;42.150;24.734;2023-01-01T03:04:27;66080.34;;;5.95;80.05
6835;BME280;3455;42.150;24.734;2023-01-01T03:07:05;66024.72;;;5.85;80.51
6835;BME280;3455;42.150;24.734;2023-01-01T03:09:42;66067.59;;;5.97;80.04
6835;BME280;3455;42.150;24.734;2023-01-01T03:12:19;66048.44;;;5.93;80.25
6835;BME280;3455;42.150;24.734;2023-01-01T03:14:52;66076.22;;;6.04;78.67
6835;BME280;3455;42.150;24.734;2023-01-01T03:17:28;66208.88;;;5.79;79.00
6835;BME280;3455;42.150;24.734;2023-01-01T03:20:00;66028.88;;;6.00;78.94
6835;BME280;3455;42.150;24.734;2023-01-01T03:22:30;66037.03;;;5.94;78.86
6835;BME280;3455;42.150;24.734;2023-01-01T03:25:02;65995.47;;;5.95;78.67
6835;BME280;3455;42.150;24.734;2023-01-01T03:27:33;66024.84;;;5.72;80.07
6835;BME280;3455;42.150;24.734;2023-01-01T03:30:05;66006.03;;;5.60;80.03
6835;BME280;3455;42.150;24.734;2023-01-01T03:32:38;66016.69;;;5.78;80.39
6835;BME280;3455;42.150;24.734;2023-01-01T03:35:25;66006.47;;;5.74;79.03
6835;BME280;3455;42.150;24.734;2023-01-01T03:37:57;65984.56;;;5.61;80.36
6835;BME280;3455;42.150;24.734;2023-01-01T03:40:26;66000.56;;;5.64;79.80
6835;BME280;3455;42.150;24.734;2023-01-01T03:42:56;66014.50;;;5.63;79.99
6835;BME280;3455;42.150;24.734;2023-01-01T03:45:29;66001.84;;;5.52;80.08
6835;BME280;3455;42.150;24.734;2023-01-01T03:48:00;65967.81;;;5.53;80.42
6835;BME280;3455;42.150;24.734;2023-01-01T03:50:34;65977.31;;;5.28;80.71
6835;BME280;3455;42.150;24.734;2023-01-01T03:53:07;65952.56;;;5.30;81.46
6835;BME280;3455;42.150;24.734;2023-01-01T03:55:40;66004.84;;;5.41;80.93
6835;BME280;3455;42.150;24.734;2023-01-01T03:58:14;65962.84;;;5.46;82.04
6835;BME280;3455;42.150;24.734;2023-01-01T04:00:49;65994.25;;;5.58;80.89
6835;BME280;3455;42.150;24.734;2023-01-01T04:03:21;66156.97;;;5.33;80.72
6835;BME280;3455;42.150;24.734;2023-01-01T04:05:48;66041.94;;;5.40;80.87
6835;BME280;3455;42.150;24.734;2023-01-01T04:08:15;65978.28;;;5.49;80.60
6835;BME280;3455;42.150;24.734;2023-01-01T04:10:44;65970.38;;;5.46;81.05
6835;BME280;3455;42.150;24.734;2023-01-01T04:13:12;65981.03;;;5.46;81.13
6835;BME280;3455;42.150;24.734;2023-01-01T04:15:40;65939.16;;;5.38;80.50
6835;BME280;3455;42.150;24.734;2023-01-01T04:18:06;66009.28;;;5.40;80.76
6835;BME280;3455;42.150;24.734;2023-01-01T04:20:35;65958.41;;;5.46;80.88
6835;BME280;3455;42.150;24.734;2023-01-01T04:23:02;65956.31;;;5.42;80.66
6835;BME280;3455;42.150;24.734;2023-01-01T04:25:29;65977.56;;;5.43;80.92
6835;BME280;3455;42.150;24.734;2023-01-01T04:27:56;65969.81;;;5.45;80.67
6835;BME280;3455;42.150;24.734;2023-01-01T04:30:23;65970.25;;;5.41;80.56
6835;BME280;3455;42.150;24.734;2023-01-01T04:32:51;65989.19;;;5.40;79.82
6835;BME280;3455;42.150;24.734;2023-01-01T04:35:17;65969.28;;;5.38;80.83
6835;BME280;3455;42.150;24.734;2023-01-01T04:37:45;65963.03;;;5.26;81.33
6835;BME280;3455;42.150;24.734;2023-01-01T04:40:13;65935.03;;;5.23;81.50
6835;BME280;3455;42.150;24.734;2023-01-01T04:42:40;66051.88;;;5.29;81.59
6835;BME280;3455;42.150;24.734;2023-01-01T04:45:08;65983.59;;;5.40;80.76
6835;BME280;3455;42.150;24.734;2023-01-01T04:47:36;66000.06;;;5.32;81.24
6835;BME280;3455;42.150;24.734;2023-01-01T04:50:04;66008.97;;;5.31;81.09
6835;BME280;3455;42.150;24.734;2023-01-01T04:52:31;65983.75;;;5.44;80.62
6835;BME280;3455;42.150;24.734;2023-01-01T04:54:59;65914.41;;;5.41;80.57
6835;BME280;3455;42.150;24.734;2023-01-01T04:57:28;65942.94;;;5.26;80.75
6835;BME280;3455;42.150;24.734;2023-01-01T04:59:54;65954.56;;;5.23;80.85
6835;BME280;3455;42.150;24.734;2023-01-01T05:02:21;65958.13;;;5.13;80.69
6835;BME280;3455;42.150;24.734;2023-01-01T05:04:48;65961.31;;;5.00;81.48
6835;BME280;3455;42.150;24.734;2023-01-01T05:07:14;65987.00;;;5.00;81.27
6835;BME280;3455;42.150;24.734;2023-01-01T05:09:41;65991.91;;;5.14;80.76
6835;BME280;3455;42.150;24.734;2023-01-01T05:12:09;65962.09;;;5.23;80.79
6835;BME280;3455;42.150;24.734;2023-01-01T05:14:36;65935.00;;;5.05;80.65
6835;BME280;3455;42.150;24.734;2023-01-01T05:17:02;65925.84;;;5.15;80.65
6835;BME280;3455;42.150;24.734;2023-01-01T05:19:29;65935.59;;;5.06;80.75
6835;BME280;3455;42.150;24.734;2023-01-01T05:21:56;65990.81;;;5.06;80.47
6835;BME280;3455;42.150;24.734;2023-01-01T05:24:22;65986.78;;;5.02;81.01
6835;BME280;3455;42.150;24.734;2023-01-01T05:26:49;65968.28;;;4.99;80.74
6835;BME280;3455;42.150;24.734;2023-01-01T05:29:18;65950.06;;;5.05;80.96
6835;BME280;3455;42.150;24.734;2023-01-01T05:31:46;65957.66;;;4.99;80.90
6835;BME280;3455;42.150;24.734;2023-01-01T05:34:13;65952.50;;;4.94;81.03
6835;BME280;3455;42.150;24.734;2023-01-01T05:36:40;65959.06;;;4.91;80.94
6835;BME280;3455;42.150;24.734;2023-01-01T05:39:08;65903.84;;;4.91;81.14
6835;BME280;3455;42.150;24.734;2023-01-01T05:41:36;65903.41;;;4.95;81.12
6835;BME280;3455;42.150;24.734;2023-01-01T05:44:04;65979.78;;;5.10;80.31
6835;BME280;3455;42.150;24.734;2023-01-01T05:46:32;65981.25;;;5.20;80.22
6835;BME280;3455;42.150;24.734;2023-01-01T05:48:59;65962.31;;;5.21;80.29
6835;BME280;3455;42.150;24.734;2023-01-01T05:51:28;65981.72;;;5.34;79.72
6835;BME280;3455;42.150;24.734;2023-01-01T05:53:55;65898.44;;;5.13;80.02
6835;BME280;3455;42.150;24.734;2023-01-01T05:56:23;65977.78;;;5.17;80.28
6835;BME280;3455;42.150;24.734;2023-01-01T05:58:50;65972.50;;;5.25;79.84
6835;BME280;3455;42.150;24.734;2023-01-01T06:01:18;66022.66;;;5.57;78.95
6835;BME280;3455;42.150;24.734;2023-01-01T06:03:48;66010.00;;;5.45;79.27
6835;BME280;3455;42.150;24.734;2023-01-01T06:06:16;66013.47;;;5.49;79.46
6835;BME280;3455;42.150;24.734;2023-01-01T06:08:48;66013.59;;;5.35;79.72
6835;BME280;3455;42.150;24.734;2023-01-01T06:11:15;65980.56;;;5.33;80.55
6835;BME280;3455;42.150;24.734;2023-01-01T06:13:42;65984.56;;;5.36;79.95
6835;BME280;3455;42.150;24.734;2023-01-01T06:16:09;65955.47;;;5.51;79.84
6835;BME280;3455;42.150;24.734;2023-01-01T06:18:36;66021.53;;;5.56;79.92
6835;BME280;3455;42.150;24.734;2023-01-01T06:21:05;66020.38;;;5.55;79.92
6835;BME280;3455;42.150;24.734;2023-01-01T06:23:32;66010.66;;;5.39;80.72
6835;BME280;3455;42.150;24.734;2023-01-01T06:26:04;66034.19;;;5.67;80.37
6835;BME280;3455;42.150;24.734;2023-01-01T06:28:32;66008.31;;;5.62;80.23
6835;BME280;3455;42.150;24.734;2023-01-01T06:30:59;66031.59;;;5.56;80.59
6835;BME280;3455;42.150;24.734;2023-01-01T06:33:27;65961.31;;;5.42;80.36
6835;BME280;3455;42.150;24.734;2023-01-01T06:35:53;66011.16;;;5.71;80.67
6835;BME280;3455;42.150;24.734;2023-01-01T06:38:22;66070.72;;;5.91;79.81
6835;BME280;3455;42.150;24.734;2023-01-01T06:40:55;66072.19;;;6.01;79.83
6835;BME280;3455;42.150;24.734;2023-01-01T06:43:22;66044.53;;;6.01;80.66
6835;BME280;3455;42.150;24.734;2023-01-01T06:45:58;66109.03;;;6.34;79.52
6835;BME280;3455;42.150;24.734;2023-01-01T06:48:26;66073.38;;;6.20;80.21
6835;BME280;3455;42.150;24.734;2023-01-01T06:50:53;66069.66;;;6.26;80.26
6835;BME280;3455;42.150;24.734;2023-01-01T06:53:24;66092.88;;;6.44;80.92
6835;BME280;3455;42.150;24.734;2023-01-01T06:55:51;66074.69;;;6.43;80.14
6835;BME280;3455;42.150;24.734;2023-01-01T06:58:18;66230.28;;;7.93;87.64
6835;BME280;3455;42.150;24.734;2023-01-01T07:00:44;66527.81;;;10.78;85.92
6835;BME280;3455;42.150;24.734;2023-01-01T07:03:11;66760.69;;;13.21;75.16
6835;BME280;3455;42.150;24.734;2023-01-01T07:05:38;66796.50;;;13.71;57.01
6835;BME280;3455;42.150;24.734;2023-01-01T07:08:05;66999.28;;;15.28;52.36
6835;BME280;3455;42.150;24.734;2023-01-01T07:10:33;67066.31;;;16.01;47.85
6835;BME280;3455;42.150;24.734;2023-01-01T07:13:00;67184.31;;;16.87;44.29
6835;BME280;3455;42.150;24.734;2023-01-01T07:15:26;67237.13;;;17.56;41.80
6835;BME280;3455;42.150;24.734;2023-01-01T07:17:53;67378.28;;;18.76;39.14
6835;BME280;3455;42.150;24.734;2023-01-01T07:20:20;67263.84;;;18.18;39.05
6835;BME280;3455;42.150;24.734;2023-01-01T07:22:46;67185.94;;;17.34;40.65
6835;BME280;3455;42.150;24.734;2023-01-01T07:25:14;67406.69;;;19.24;37.65
6835;BME280;3455;42.150;24.734;2023-01-01T07:27:43;67429.28;;;19.39;36.51
6835;BME280;3455;42.150;24.734;2023-01-01T07:30:11;67461.44;;;19.61;36.28
6835;BME280;3455;42.150;24.734;2023-01-01T07:32:37;67427.13;;;19.47;36.61
6835;BME280;3455;42.150;24.734;2023-01-01T07:35:05;67554.06;;;20.90;34.38
6835;BME280;3455;42.150;24.734;2023-01-01T07:37:32;67507.47;;;20.17;34.79
6835;BME280;3455;42.150;24.734;2023-01-01T07:39:58;67514.31;;;20.46;34.69
6835;BME280;3455;42.150;24.734;2023-01-01T07:42:25;67493.78;;;19.92;35.82
6835;BME280;3455;42.150;24.734;2023-01-01T07:44:53;67544.78;;;20.39;34.82
6835;BME280;3455;42.150;24.734;2023-01-01T07:47:21;67485.28;;;20.09;35.51
6835;BME280;3455;42.150;24.734;2023-01-01T07:49:49;67605.63;;;21.22;33.58
6835;BME280;3455;42.150;24.734;2023-01-01T07:52:16;67560.34;;;20.59;34.84
6835;BME280;3455;42.150;24.734;2023-01-01T07:54:43;67505.13;;;20.15;34.90
6835;BME280;3455;42.150;24.734;2023-01-01T07:57:10;67397.16;;;19.61;35.83
6835;BME280;3455;42.150;24.734;2023-01-01T07:59:37;67592.47;;;20.92;34.60
6835;BME280;3455;42.150;24.734;2023-01-01T08:02:05;67711.75;;;21.88;32.74
6835;BME280;3455;42.150;24.734;2023-01-01T08:04:32;67704.84;;;21.87;32.12
6835;BME280;3455;42.150;24.734;2023-01-01T08:06:58;67721.50;;;21.88;32.41
6835;BME280;3455;42.150;24.734;2023-01-01T08:09:25;67733.84;;;22.35;31.04
6835;BME280;3455;42.150;24.734;2023-01-01T08:11:52;67728.56;;;22.62;30.54
6835;BME280;3455;42.150;24.734;2023-01-01T08:14:18;67700.84;;;21.88;31.66
6835;BME280;3455;42.150;24.734;2023-01-01T08:16:45;67765.72;;;22.22;31.94
6835;BME280;3455;42.150;24.734;2023-01-01T08:19:13;67720.09;;;22.05;31.28
6835;BME280;3455;42.150;24.734;2023-01-01T08:21:40;67960.38;;;23.75;28.91
6835;BME280;3455;42.150;24.734;2023-01-01T08:24:07;67901.38;;;23.55;29.15
6835;BME280;3455;42.150;24.734;2023-01-01T08:26:35;67958.22;;;23.66;29.22
6835;BME280;3455;42.150;24.734;2023-01-01T08:29:03;67885.53;;;23.37;29.19
6835;BME280;3455;42.150;24.734;2023-01-01T08:31:30;67836.50;;;22.93;29.70
6835;BME280;3455;42.150;24.734;2023-01-01T08:33:57;67867.53;;;23.25;29.89
6835;BME280;3455;42.150;24.734;2023-01-01T08:36:25;67965.81;;;23.89;28.99
6835;BME280;3455;42.150;24.734;2023-01-01T08:38:52;67951.44;;;23.90;29.01
6835;BME280;3455;42.150;24.734;2023-01-01T08:41:19;67891.03;;;23.55;29.00
6835;BME280;3455;42.150;24.734;2023-01-01T08:43:45;68038.44;;;24.62;27.80
6835;BME280;3455;42.150;24.734;2023-01-01T08:46:12;67984.66;;;24.15;28.31
6835;BME280;3455;42.150;24.734;2023-01-01T08:48:39;67856.59;;;23.25;29.54
6835;BME280;3455;42.150;24.734;2023-01-01T08:51:05;67741.25;;;22.48;30.92
6835;BME280;3455;42.150;24.734;2023-01-01T08:53:34;67892.97;;;23.34;31.51
6835;BME280;3455;42.150;24.734;2023-01-01T08:56:02;67971.81;;;24.03;28.52
6835;BME280;3455;42.150;24.734;2023-01-01T08:58:30;67828.56;;;23.16;29.82
6835;BME280;3455;42.150;24.734;2023-01-01T09:00:57;67982.94;;;24.13;29.76
6835;BME280;3455;42.150;24.734;2023-01-01T09:03:24;68121.34;;;25.46;27.38
6835;BME280;3455;42.150;24.734;2023-01-01T09:05:51;67970.81;;;24.12;28.57
6835;BME280;3455;42.150;24.734;2023-01-01T09:08:19;68131.63;;;25.21;27.62
6835;BME280;3455;42.150;24.734;2023-01-01T09:10:48;68168.06;;;25.62;26.30
6835;BME280;3455;42.150;24.734;2023-01-01T09:13:17;68326.06;;;26.59;26.13
6835;BME280;3455;42.150;24.734;2023-01-01T09:15:44;68209.94;;;25.85;26.00
6835;BME280;3455;42.150;24.734;2023-01-01T09:18:12;68231.06;;;26.03;26.41
6835;BME280;3455;42.150;24.734;2023-01-01T09:20:39;68333.38;;;26.64;25.41
6835;BME280;3455;42.150;24.734;2023-01-01T09:23:06;68228.41;;;26.19;26.34
6835;BME280;3455;42.150;24.734;2023-01-01T09:25:34;68198.25;;;25.75;26.61
6835;BME280;3455;42.150;24.734;2023-01-01T09:28:04;68313.25;;;26.53;25.97
6835;BME280;3455;42.150;24.734;2023-01-01T09:30:31;68339.81;;;26.90;25.01
6835;BME280;3455;42.150;24.734;2023-01-01T09:32:58;68379.19;;;26.92;25.67
6835;BME280;3455;42.150;24.734;2023-01-01T09:35:25;68464.06;;;27.57;24.53
6835;BME280;3455;42.150;24.734;2023-01-01T09:37:52;68372.81;;;27.28;24.88
6835;BME280;3455;42.150;24.734;2023-01-01T09:40:27;68488.19;;;27.83;24.02
6835;BME280;3455;42.150;24.734;2023-01-01T09:43:04;68460.31;;;27.77;23.81
6835;BME280;3455;42.150;24.734;2023-01-01T09:45:40;68695.94;;;29.15;22.86
6835;BME280;3455;42.150;24.734;2023-01-01T09:48:12;68302.50;;;26.66;24.64
6835;BME280;3455;42.150;24.734;2023-01-01T09:50:42;68419.72;;;27.32;24.63
6835;BME280;3455;42.150;24.734;2023-01-01T09:53:12;68706.19;;;29.21;22.38
6835;BME280;3455;42.150;24.734;2023-01-01T09:55:45;68668.13;;;28.77;22.59
6835;BME280;3455;42.150;24.734;2023-01-01T09:58:14;68647.09;;;28.67;23.00
6835;BME280;3455;42.150;24.734;2023-01-01T10:00:46;68492.88;;;27.87;24.03
6835;BME280;3455;42.150;24.734;2023-01-01T10:03:26;68694.63;;;29.45;23.17
6835;BME280;3455;42.150;24.734;2023-01-01T10:06:02;68626.88;;;28.72;23.21
6835;BME280;3455;42.150;24.734;2023-01-01T10:08:46;68576.53;;;28.42;23.64
6835;BME280;3455;42.150;24.734;2023-01-01T10:11:23;68552.88;;;28.08;23.45
6835;BME280;3455;42.150;24.734;2023-01-01T10:13:56;68886.94;;;30.47;21.32
6835;BME280;3455;42.150;24.734;2023-01-01T10:16:29;68785.75;;;29.43;22.59
6835;BME280;3455;42.150;24.734;2023-01-01T10:19:03;68820.94;;;30.05;22.08
6835;BME280;3455;42.150;24.734;2023-01-01T10:21:35;68874.38;;;30.43;21.33
6835;BME280;3455;42.150;24.734;2023-01-01T10:24:22;68850.56;;;30.24;21.37
6835;BME280;3455;42.150;24.734;2023-01-01T10:26:53;68673.00;;;28.95;22.49
6835;BME280;3455;42.150;24.734;2023-01-01T10:29:25;68841.41;;;30.14;21.96
6835;BME280;3455;42.150;24.734;2023-01-01T10:31:55;68980.31;;;30.90;20.84
6835;BME280;3455;42.150;24.734;2023-01-01T10:34:24;68881.38;;;30.44;21.09
6835;BME280;3455;42.150;24.734;2023-01-01T10:36:53;68825.72;;;30.14;21.07
6835;BME280;3455;42.150;24.734;2023-01-01T10:39:21;68650.34;;;28.93;22.40
6835;BME280;3455;42.150;24.734;2023-01-01T10:41:48;68618.78;;;28.75;23.04
6835;BME280;3455;42.150;24.734;2023-01-01T10:44:22;68712.66;;;29.47;21.79
6835;BME280;3455;42.150;24.734;2023-01-01T10:46:55;68596.53;;;28.60;23.12
6835;BME280;3455;42.150;24.734;2023-01-01T10:49:22;68844.41;;;30.21;20.90
6835;BME280;3455;42.150;24.734;2023-01-01T10:51:50;68898.31;;;30.50;21.06
6835;BME280;3455;42.150;24.734;2023-01-01T10:54:25;68816.69;;;29.93;21.68
6835;BME280;3455;42.150;24.734;2023-01-01T10:56:56;68896.81;;;30.67;20.80
6835;BME280;3455;42.150;24.734;2023-01-01T10:59:35;68845.25;;;30.20;20.55
6835;BME280;3455;42.150;24.734;2023-01-01T11:02:18;68819.28;;;30.13;20.80
6835;BME280;3455;42.150;24.734;2023-01-01T11:04:46;68850.69;;;30.13;21.14
6835;BME280;3455;42.150;24.734;2023-01-01T11:07:27;68990.44;;;31.28;20.23
6835;BME280;3455;42.150;24.734;2023-01-01T11:09:57;68911.72;;;30.53;20.59
6835;BME280;3455;42.150;24.734;2023-01-01T11:12:29;68669.44;;;29.28;21.32
6835;BME280;3455;42.150;24.734;2023-01-01T11:14:58;68758.13;;;29.60;22.15
6835;BME280;3455;42.150;24.734;2023-01-01T11:17:27;68802.34;;;30.28;20.67
6835;BME280;3455;42.150;24.734;2023-01-01T11:19:56;68939.53;;;30.86;20.01
6835;BME280;3455;42.150;24.734;2023-01-01T11:22:35;68914.34;;;30.94;20.83
6835;BME280;3455;42.150;24.734;2023-01-01T11:25:09;69139.22;;;32.05;19.94
6835;BME280;3455;42.150;24.734;2023-01-01T11:27:42;69041.59;;;31.43;19.68
6835;BME280;3455;42.150;24.734;2023-01-01T11:30:25;69102.34;;;31.75;19.00
6835;BME280;3455;42.150;24.734;2023-01-01T11:32:55;69177.75;;;32.32;18.79
6835;BME280;3455;42.150;24.734;2023-01-01T11:35:25;69012.00;;;31.49;19.66
6835;BME280;3455;42.150;24.734;2023-01-01T11:37:54;69173.84;;;32.22;19.17
6835;BME280;3455;42.150;24.734;2023-01-01T11:40:23;69226.44;;;32.51;18.99
6835;BME280;3455;42.150;24.734;2023-01-01T11:42:53;69302.06;;;32.96;18.33
6835;BME280;3455;42.150;24.734;2023-01-01T11:45:25;69284.94;;;32.82;18.67
6835;BME280;3455;42.150;24.734;2023-01-01T11:47:55;69012.88;;;31.27;19.76
6835;BME280;3455;42.150;24.734;2023-01-01T11:50:27;68943.00;;;30.84;20.03
6835;BME280;3455;42.150;24.734;2023-01-01T11:52:55;69174.41;;;32.01;19.19
6835;BME280;3455;42.150;24.734;2023-01-01T11:55:31;69169.50;;;32.25;18.92
6835;BME280;3455;42.150;24.734;2023-01-01T11:58:05;68908.03;;;30.81;19.91
6835;BME280;3455;42.150;24.734;2023-01-01T12:00:37;68930.91;;;30.92;20.16
6835;BME280;3455;42.150;24.734;2023-01-01T12:03:11;69092.13;;;31.73;19.19
6835;BME280;3455;42.150;24.734;2023-01-01T12:05:47;68883.91;;;30.60;20.16
6835;BME280;3455;42.150;24.734;2023-01-01T12:08:22;68925.91;;;30.70;20.43
6835;BME280;3455;42.150;24.734;2023-01-01T12:10:56;68692.41;;;29.11;21.64
6835;BME280;3455;42.150;24.734;2023-01-01T12:13:26;69019.94;;;31.33;19.48
6835;BME280;3455;42.150;24.734;2023-01-01T12:16:01;69117.53;;;32.00;18.98
6835;BME280;3455;42.150;24.734;2023-01-01T12:18:36;69179.63;;;32.17;19.56
6835;BME280;3455;42.150;24.734;2023-01-01T12:21:10;69027.66;;;31.44;19.87
6835;BME280;3455;42.150;24.734;2023-01-01T12:23:38;68999.63;;;31.18;19.87
6835;BME280;3455;42.150;24.734;2023-01-01T12:26:12;69204.34;;;32.34;19.34
6835;BME280;3455;42.150;24.734;2023-01-01T12:28:56;69436.53;;;33.65;18.06
6835;BME280;3455;42.150;24.734;2023-01-01T12:31:37;69366.69;;;33.05;18.08
6835;BME280;3455;42.150;24.734;2023-01-01T12:34:11;69539.50;;;34.13;17.77
6835;BME280;3455;42.150;24.734;2023-01-01T12:36:47;69511.22;;;34.19;17.68
6835;BME280;3455;42.150;24.734;2023-01-01T12:39:52;69514.03;;;34.32;17.62
6835;BME280;3455;42.150;24.734;2023-01-01T12:42:33;69538.31;;;34.33;17.63
6835;BME280;3455;42.150;24.734;2023-01-01T12:45:21;69482.16;;;33.89;17.87
6835;BME280;3455;42.150;24.734;2023-01-01T12:47:59;69278.03;;;32.89;18.90
6835;BME280;3455;42.150;24.734;2023-01-01T12:50:36;69330.84;;;33.08;18.21
6835;BME280;3455;42.150;24.734;2023-01-01T12:53:18;69247.72;;;32.70;18.70
6835;BME280;3455;42.150;24.734;2023-01-01T12:56:07;68985.34;;;31.17;20.20
6835;BME280;3455;42.150;24.734;2023-01-01T12:58:41;69111.69;;;31.74;19.31
6835;BME280;3455;42.150;24.734;2023-01-01T13:01:12;68872.69;;;30.46;20.91
6835;BME280;3455;42.150;24.734;2023-01-01T13:03:48;68830.81;;;30.46;20.99
6835;BME280;3455;42.150;24.734;2023-01-01T13:06:17;68946.69;;;30.97;20.65
6835;BME280;3455;42.150;24.734;2023-01-01T13:08:49;69094.38;;;31.66;19.67
6835;BME280;3455;42.150;24.734;2023-01-01T13:11:17;69009.97;;;31.29;20.19
6835;BME280;3455;42.150;24.734;2023-01-01T13:13:44;68590.22;;;28.63;22.30
6835;BME280;3455;42.150;24.734;2023-01-01T13:16:11;68195.53;;;25.86;25.65
6835;BME280;3455;42.150;24.734;2023-01-01T13:18:38;67976.28;;;24.30;27.39
6835;BME280;3455;42.150;24.734;2023-01-01T13:21:20;67800.56;;;22.91;29.52
6835;BME280;3455;42.150;24.734;2023-01-01T13:24:03;67607.31;;;21.51;31.91
6835;BME280;3455;42.150;24.734;2023-01-01T13:26:40;67476.84;;;20.47;34.34
6835;BME280;3455;42.150;24.734;2023-01-01T13:29:31;67416.38;;;20.10;35.08
6835;BME280;3455;42.150;24.734;2023-01-01T13:32:00;67358.13;;;19.22;36.12
6835;BME280;3455;42.150;24.734;2023-01-01T13:37:40;67318.41;;;19.21;37.42